sensor_id;sensor_type;location;lat;lon;timestamp;temperature;humidity
43665;DHT22;29263;48.172;11.484;2023-03-21T00:01:37;7.00;99.90
43665;DHT22;29263;48.172;11.484;2023-03-21T00:04:02;7.00;99.90
43665;DHT22;29263;48.172;11.484;2023-03-21T00:06:28;7.00;99.90
43665;DHT22;29263;48.172;11.484;2023-03-21T00:08:54;7.00;99.90
43665;DHT22;29263;48.172;11.484;2023-03-21T00:11:20;7.00;99.90
43665;DHT22;29263;48.172;11.484;2023-03-21T00:13:46;7.00;99.90
43665;DHT22;29263;48.172;11.484;2023-03-21T00:16:17;7.00;99.90
43665;DHT22;29263;48.172;11.484;2023-03-21T00:18:47;7.00;99.90
43665;DHT22;29263;48.172;11.484;2023-03-21T00:21:18;7.00;99.90
43665;DHT22;29263;48.172;11.484;2023-03-21T00:23:44;7.00;99.90
43665;DHT22;29263;48.172;11.484;2023-03-21T00:26:11;7.00;99.90
43665;DHT22;29263;48.172;11.484;2023-03-21T00:28:38;7.00;99.90
43665;DHT22;29263;48.172;11.484;2023-03-21T00:31:05;7.00;99.90
43665;DHT22;29263;48.172;11.484;2023-03-21T00:33:31;7.10;99.90
43665;DHT22;29263;48.172;11.484;2023-03-21T00:35:57;7.10;99.90
43665;DHT22;29263;48.172;11.484;2023-03-21T00:38:23;7.10;99.90
43665;DHT22;29263;48.172;11.484;2023-03-21T00:40:49;7.10;99.90
43665;DHT22;29263;48.172;11.484;2023-03-21T00:43:15;7.20;99.90
43665;DHT22;29263;48.172;11.484;2023-03-21T00:45:45;7.20;99.90
43665;DHT22;29263;48.172;11.484;2023-03-21T00:48:11;7.20;99.90
43665;DHT22;29263;48.172;11.484;2023-03-21T00:50:38;7.20;99.90
43665;DHT22;29263;48.172;11.484;2023-03-21T00:53:05;7.20;99.90
43665;DHT22;29263;48.172;11.484;2023-03-21T00:55:31;7.20;99.90
43665;DHT22;29263;48.172;11.484;2023-03-21T00:57:57;7.20;99.90
43665;DHT22;29263;48.172;11.484;2023-03-21T01:00:26;7.20;99.90
43665;DHT22;29263;48.172;11.484;2023-03-21T01:02:51;7.20;99.90
43665;DHT22;29263;48.172;11.484;2023-03-21T01:05:31;7.20;99.90
43665;DHT22;29263;48.172;11.484;2023-03-21T01:08:16;7.30;99.90
43665;DHT22;29263;48.172;11.484;2023-03-21T01:10:45;7.30;99.90
43665;DHT22;29263;48.172;11.484;2023-03-21T01:13:12;7.30;99.90
43665;DHT22;29263;48.172;11.484;2023-03-21T01:15:49;7.30;99.90
43665;DHT22;29263;48.172;11.484;2023-03-21T01:18:18;7.30;99.90
43665;DHT22;29263;48.172;11.484;2023-03-21T01:20:45;7.30;99.90
43665;DHT22;29263;48.172;11.484;2023-03-21T01:23:12;7.30;99.90
43665;DHT22;29263;48.172;11.484;2023-03-21T01:25:38;7.30;99.90
43665;DHT22;29263;48.172;11.484;2023-03-21T01:28:05;7.30;99.90
43665;DHT22;29263;48.172;11.484;2023-03-21T01:30:31;7.40;99.90
43665;DHT22;29263;48.172;11.484;2023-03-21T01:32:56;7.40;99.90
43665;DHT22;29263;48.172;11.484;2023-03-21T01:35:22;7.40;99.90
43665;DHT22;29263;48.172;11.484;2023-03-21T01:37:48;7.40;99.90
43665;DHT22;29263;48.172;11.484;2023-03-21T01:40:23;7.40;99.90
43665;DHT22;29263;48.172;11.484;2023-03-21T01:42:49;7.40;99.90
43665;DHT22;29263;48.172;11.484;2023-03-21T01:48:18;7.40;99.90
43665;DHT22;29263;48.172;11.484;2023-03-21T01:50:46;7.40;99.90
43665;DHT22;29263;48.172;11.484;2023-03-21T01:53:12;7.40;99.90
43665;DHT22;29263;48.172;11.484;2023-03-21T01:55:40;7.40;99.90
43665;DHT22;29263;48.172;11.484;2023-03-21T01:58:07;7.40;99.90
43665;DHT22;29263;48.172;11.484;2023-03-21T02:00:34;7.40;99.90
43665;DHT22;29263;48.172;11.484;2023-03-21T02:03:04;7.40;99.90
43665;DHT22;29263;48.172;11.484;2023-03-21T02:08:01;7.40;99.90
43665;DHT22;29263;48.172;11.484;2023-03-21T02:10:28;7.50;99.90
43665;DHT22;29263;48.172;11.484;2023-03-21T02:12:58;7.40;99.90
43665;DHT22;29263;48.172;11.484;2023-03-21T02:15:33;7.40;99.90
43665;DHT22;29263;48.172;11.484;2023-03-21T02:18:12;7.40;99.90
43665;DHT22;29263;48.172;11.484;2023-03-21T02:28:46;7.40;99.90
43665;DHT22;29263;48.172;11.484;2023-03-21T02:40:05;7.40;99.90
43665;DHT22;29263;48.172;11.484;2023-03-21T02:43:06;7.30;99.90
43665;DHT22;29263;48.172;11.484;2023-03-21T02:45:49;7.40;99.90
43665;DHT22;29263;48.172;11.484;2023-03-21T02:48:21;7.30;99.90
43665;DHT22;29263;48.172;11.484;2023-03-21T02:50:51;7.40;99.90
43665;DHT22;29263;48.172;11.484;2023-03-21T02:53:19;7.40;99.90
43665;DHT22;29263;48.172;11.484;2023-03-21T02:55:47;7.40;99.90
43665;DHT22;29263;48.172;11.484;2023-03-21T02:58:19;7.40;99.90
43665;DHT22;29263;48.172;11.484;2023-03-21T03:00:47;7.30;99.90
43665;DHT22;29263;48.172;11.484;2023-03-21T03:03:14;7.30;99.90
43665;DHT22;29263;48.172;11.484;2023-03-21T03:05:48;7.30;99.90
43665;DHT22;29263;48.172;11.484;2023-03-21T03:16:47;7.30;99.90
43665;DHT22;29263;48.172;11.484;2023-03-21T03:19:25;7.30;99.90
43665;DHT22;29263;48.172;11.484;2023-03-21T03:24:37;7.30;99.90
43665;DHT22;29263;48.172;11.484;2023-03-21T03:27:10;7.30;99.90
43665;DHT22;29263;48.172;11.484;2023-03-21T03:29:42;7.30;99.90
43665;DHT22;29263;48.172;11.484;2023-03-21T03:32:18;7.30;99.90
43665;DHT22;29263;48.172;11.484;2023-03-21T03:34:49;7.30;99.90
43665;DHT22;29263;48.172;11.484;2023-03-21T03:37:20;7.30;99.90
43665;DHT22;29263;48.172;11.484;2023-03-21T03:40:07;7.30;99.90
43665;DHT22;29263;48.172;11.484;2023-03-21T03:42:39;7.30;99.90
43665;DHT22;29263;48.172;11.484;2023-03-21T03:45:08;7.30;99.90
43665;DHT22;29263;48.172;11.484;2023-03-21T03:47:46;7.30;99.90
43665;DHT22;29263;48.172;11.484;2023-03-21T03:50:17;7.30;99.90
43665;DHT22;29263;48.172;11.484;2023-03-21T03:52:46;7.30;99.90
43665;DHT22;29263;48.172;11.484;2023-03-21T03:55:15;7.30;99.90
43665;DHT22;29263;48.172;11.484;2023-03-21T03:57:42;7.30;99.90
43665;DHT22;29263;48.172;11.484;2023-03-21T04:00:10;7.40;99.90
43665;DHT22;29263;48.172;11.484;2023-03-21T04:02:37;7.30;99.90
43665;DHT22;29263;48.172;11.484;2023-03-21T04:05:03;7.30;99.90
43665;DHT22;29263;48.172;11.484;2023-03-21T04:07:29;7.30;99.90
43665;DHT22;29263;48.172;11.484;2023-03-21T04:09:55;7.30;99.90
43665;DHT22;29263;48.172;11.484;2023-03-21T04:12:22;7.30;99.90
43665;DHT22;29263;48.172;11.484;2023-03-21T04:14:47;7.30;99.90
43665;DHT22;29263;48.172;11.484;2023-03-21T04:17:14;7.30;99.90
43665;DHT22;29263;48.172;11.484;2023-03-21T04:19:40;7.30;99.90
43665;DHT22;29263;48.172;11.484;2023-03-21T04:22:05;7.30;99.90
43665;DHT22;29263;48.172;11.484;2023-03-21T04:24:31;7.30;99.90
43665;DHT22;29263;48.172;11.484;2023-03-21T04:26:58;7.30;99.90
43665;DHT22;29263;48.172;11.484;2023-03-21T04:29:24;7.30;99.90
43665;DHT22;29263;48.172;11.484;2023-03-21T04:31:54;7.20;99.90
43665;DHT22;29263;48.172;11.484;2023-03-21T04:34:20;7.30;99.90
43665;DHT22;29263;48.172;11.484;2023-03-21T04:36:48;7.30;99.90
43665;DHT22;29263;48.172;11.484;2023-03-21T04:39:15;7.30;99.90
43665;DHT22;29263;48.172;11.484;2023-03-21T04:41:43;7.30;99.90
43665;DHT22;29263;48.172;11.484;2023-03-21T04:44:10;7.20;99.90
43665;DHT22;29263;48.172;11.484;2023-03-21T04:46:37;7.20;99.90
43665;DHT22;29263;48.172;11.484;2023-03-21T04:49:03;7.20;99.90
43665;DHT22;29263;48.172;11.484;2023-03-21T04:51:29;7.20;99.90
43665;DHT22;29263;48.172;11.484;2023-03-21T04:53:55;7.20;99.90
43665;DHT22;29263;48.172;11.484;2023-03-21T04:56:27;7.20;99.90
43665;DHT22;29263;48.172;11.484;2023-03-21T04:59:07;7.20;99.90
43665;DHT22;29263;48.172;11.484;2023-03-21T05:01:33;7.20;99.90
43665;DHT22;29263;48.172;11.484;2023-03-21T05:04:00;7.20;99.90
43665;DHT22;29263;48.172;11.484;2023-03-21T05:06:26;7.20;99.90
43665;DHT22;29263;48.172;11.484;2023-03-21T05:08:54;7.20;99.90
43665;DHT22;29263;48.172;11.484;2023-03-21T05:11:21;7.20;99.90
43665;DHT22;29263;48.172;11.484;2023-03-21T05:13:47;7.20;99.90
43665;DHT22;29263;48.172;11.484;2023-03-21T05:16:12;7.20;99.90
43665;DHT22;29263;48.172;11.484;2023-03-21T05:18:38;7.20;99.90
43665;DHT22;29263;48.172;11.484;2023-03-21T05:21:04;7.20;99.90
43665;DHT22;29263;48.172;11.484;2023-03-21T05:23:32;7.20;99.90
43665;DHT22;29263;48.172;11.484;2023-03-21T05:26:04;7.20;99.90
43665;DHT22;29263;48.172;11.484;2023-03-21T05:28:30;7.30;99.90
43665;DHT22;29263;48.172;11.484;2023-03-21T05:31:02;7.20;99.90
43665;DHT22;29263;48.172;11.484;2023-03-21T05:33:28;7.30;99.90
43665;DHT22;29263;48.172;11.484;2023-03-21T05:35:53;7.20;99.90
43665;DHT22;29263;48.172;11.484;2023-03-21T05:38:19;7.20;99.90
43665;DHT22;29263;48.172;11.484;2023-03-21T05:40:46;7.30;99.90
43665;DHT22;29263;48.172;11.484;2023-03-21T05:43:12;7.30;99.90
43665;DHT22;29263;48.172;11.484;2023-03-21T05:45:38;7.30;99.90
43665;DHT22;29263;48.172;11.484;2023-03-21T05:48:04;7.30;99.90
43665;DHT22;29263;48.172;11.484;2023-03-21T05:50:29;7.30;99.90
43665;DHT22;29263;48.172;11.484;2023-03-21T05:52:55;7.30;99.90
43665;DHT22;29263;48.172;11.484;2023-03-21T05:55:20;7.30;99.90
43665;DHT22;29263;48.172;11.484;2023-03-21T05:57:46;7.30;99.90
43665;DHT22;29263;48.172;11.484;2023-03-21T06:00:14;7.40;99.90
43665;DHT22;29263;48.172;11.484;2023-03-21T06:02:39;7.40;99.90
43665;DHT22;29263;48.172;11.484;2023-03-21T06:05:06;7.40;99.90
43665;DHT22;29263;48.172;11.484;2023-03-21T06:07:32;7.40;99.90
43665;DHT22;29263;48.172;11.484;2023-03-21T06:09:58;7.50;99.90
43665;DHT22;29263;48.172;11.484;2023-03-21T06:12:24;7.50;99.90
43665;DHT22;29263;48.172;11.484;2023-03-21T06:14:49;7.50;99.90
43665;DHT22;29263;48.172;11.484;2023-03-21T06:17:15;7.60;99.90
43665;DHT22;29263;48.172;11.484;2023-03-21T06:19:40;7.60;99.90
43665;DHT22;29263;48.172;11.484;2023-03-21T06:22:06;7.70;99.90
43665;DHT22;29263;48.172;11.484;2023-03-21T06:24:32;7.70;99.90
43665;DHT22;29263;48.172;11.484;2023-03-21T06:26:57;7.70;99.90
43665;DHT22;29263;48.172;11.484;2023-03-21T06:29:23;7.80;99.90
43665;DHT22;29263;48.172;11.484;2023-03-21T06:31:49;7.80;99.90
43665;DHT22;29263;48.172;11.484;2023-03-21T06:34:15;7.80;99.90
43665;DHT22;29263;48.172;11.484;2023-03-21T06:36:40;7.90;99.90
43665;DHT22;29263;48.172;11.484;2023-03-21T06:39:09;8.00;99.90
43665;DHT22;29263;48.172;11.484;2023-03-21T06:41:35;8.00;99.90
43665;DHT22;29263;48.172;11.484;2023-03-21T06:44:01;8.00;99.90
43665;DHT22;29263;48.172;11.484;2023-03-21T06:46:27;8.10;99.90
43665;DHT22;29263;48.172;11.484;2023-03-21T06:48:52;8.10;99.90
43665;DHT22;29263;48.172;11.484;2023-03-21T06:51:18;8.10;99.90
43665;DHT22;29263;48.172;11.484;2023-03-21T06:53:44;8.20;99.90
43665;DHT22;29263;48.172;11.484;2023-03-21T06:56:11;8.20;99.90
43665;DHT22;29263;48.172;11.484;2023-03-21T06:58:37;8.30;99.90
43665;DHT22;29263;48.172;11.484;2023-03-21T07:01:03;8.40;99.90
43665;DHT22;29263;48.172;11.484;2023-03-21T07:03:29;8.40;99.90
43665;DHT22;29263;48.172;11.484;2023-03-21T07:05:56;8.60;99.90
43665;DHT22;29263;48.172;11.484;2023-03-21T07:08:22;8.60;99.90
43665;DHT22;29263;48.172;11.484;2023-03-21T07:10:47;8.60;99.90
43665;DHT22;29263;48.172;11.484;2023-03-21T07:13:13;8.70;99.90
43665;DHT22;29263;48.172;11.484;2023-03-21T07:15:39;8.80;99.90
43665;DHT22;29263;48.172;11.484;2023-03-21T07:18:07;8.90;99.90
43665;DHT22;29263;48.172;11.484;2023-03-21T07:20:34;8.90;99.90
43665;DHT22;29263;48.172;11.484;2023-03-21T07:23:03;9.00;99.90
43665;DHT22;29263;48.172;11.484;2023-03-21T07:25:29;9.00;99.90
43665;DHT22;29263;48.172;11.484;2023-03-21T07:27:55;9.10;99.90
43665;DHT22;29263;48.172;11.484;2023-03-21T07:30:21;9.10;99.90
43665;DHT22;29263;48.172;11.484;2023-03-21T07:32:46;9.20;99.90
43665;DHT22;29263;48.172;11.484;2023-03-21T07:35:14;9.20;99.90
43665;DHT22;29263;48.172;11.484;2023-03-21T07:37:43;9.30;99.90
43665;DHT22;29263;48.172;11.484;2023-03-21T07:40:10;9.30;99.90
43665;DHT22;29263;48.172;11.484;2023-03-21T07:42:38;9.40;99.90
43665;DHT22;29263;48.172;11.484;2023-03-21T07:45:04;9.50;99.90
43665;DHT22;29263;48.172;11.484;2023-03-21T07:47:30;9.50;99.90
43665;DHT22;29263;48.172;11.484;2023-03-21T07:49:56;9.60;99.90
43665;DHT22;29263;48.172;11.484;2023-03-21T07:52:22;9.60;99.90
43665;DHT22;29263;48.172;11.484;2023-03-21T07:54:47;9.70;99.90
43665;DHT22;29263;48.172;11.484;2023-03-21T07:57:13;9.70;99.90
43665;DHT22;29263;48.172;11.484;2023-03-21T07:59:38;9.80;99.90
43665;DHT22;29263;48.172;11.484;2023-03-21T08:02:04;9.80;99.90
43665;DHT22;29263;48.172;11.484;2023-03-21T08:04:30;9.80;99.90
43665;DHT22;29263;48.172;11.484;2023-03-21T08:06:56;9.90;99.90
43665;DHT22;29263;48.172;11.484;2023-03-21T08:09:22;9.90;99.90
43665;DHT22;29263;48.172;11.484;2023-03-21T08:11:47;10.00;99.90
43665;DHT22;29263;48.172;11.484;2023-03-21T08:14:13;10.00;99.90
43665;DHT22;29263;48.172;11.484;2023-03-21T08:16:39;10.10;99.90
43665;DHT22;29263;48.172;11.484;2023-03-21T08:19:04;10.20;99.90
43665;DHT22;29263;48.172;11.484;2023-03-21T08:21:30;10.40;99.90
43665;DHT22;29263;48.172;11.484;2023-03-21T08:23:56;10.50;99.90
43665;DHT22;29263;48.172;11.484;2023-03-21T08:26:24;10.50;99.90
43665;DHT22;29263;48.172;11.484;2023-03-21T08:28:50;10.50;99.90
43665;DHT22;29263;48.172;11.484;2023-03-21T08:31:16;10.70;99.90
43665;DHT22;29263;48.172;11.484;2023-03-21T08:33:42;10.70;99.90
43665;DHT22;29263;48.172;11.484;2023-03-21T08:36:08;10.80;99.90
43665;DHT22;29263;48.172;11.484;2023-03-21T08:38:34;10.80;99.90
43665;DHT22;29263;48.172;11.484;2023-03-21T08:41:00;10.90;99.90
43665;DHT22;29263;48.172;11.484;2023-03-21T08:43:27;10.90;99.90
43665;DHT22;29263;48.172;11.484;2023-03-21T08:45:53;11.00;98.60
43665;DHT22;29263;48.172;11.484;2023-03-21T08:48:19;11.10;96.00
43665;DHT22;29263;48.172;11.484;2023-03-21T08:50:45;11.10;96.90
43665;DHT22;29263;48.172;11.484;2023-03-21T08:53:11;11.10;95.30
43665;DHT22;29263;48.172;11.484;2023-03-21T08:55:37;11.10;95.80
43665;DHT22;29263;48.172;11.484;2023-03-21T08:58:03;11.20;94.00
43665;DHT22;29263;48.172;11.484;2023-03-21T09:00:29;11.20;92.40
43665;DHT22;29263;48.172;11.484;2023-03-21T09:02:55;11.30;93.60
43665;DHT22;29263;48.172;11.484;2023-03-21T09:05:23;11.40;91.30
43665;DHT22;29263;48.172;11.484;2023-03-21T09:07:51;11.50;93.40
43665;DHT22;29263;48.172;11.484;2023-03-21T09:10:18;11.60;95.60
43665;DHT22;29263;48.172;11.484;2023-03-21T09:12:44;11.70;93.60
43665;DHT22;29263;48.172;11.484;2023-03-21T09:15:13;11.70;93.40
43665;DHT22;29263;48.172;11.484;2023-03-21T09:17:40;11.80;91.00
43665;DHT22;29263;48.172;11.484;2023-03-21T09:20:12;11.90;82.50
43665;DHT22;29263;48.172;11.484;2023-03-21T09:22:49;11.90;82.20
43665;DHT22;29263;48.172;11.484;2023-03-21T09:25:17;12.10;80.40
43665;DHT22;29263;48.172;11.484;2023-03-21T09:27:43;12.10;77.00
43665;DHT22;29263;48.172;11.484;2023-03-21T09:30:11;12.20;75.00
43665;DHT22;29263;48.172;11.484;2023-03-21T09:32:37;12.30;75.00
43665;DHT22;29263;48.172;11.484;2023-03-21T09:35:04;12.30;74.40
43665;DHT22;29263;48.172;11.484;2023-03-21T09:37:31;12.40;72.10
43665;DHT22;29263;48.172;11.484;2023-03-21T09:39:57;12.20;74.60
43665;DHT22;29263;48.172;11.484;2023-03-21T09:45:20;12.30;73.40
43665;DHT22;29263;48.172;11.484;2023-03-21T09:47:48;12.30;71.50
43665;DHT22;29263;48.172;11.484;2023-03-21T09:50:19;12.40;72.70
43665;DHT22;29263;48.172;11.484;2023-03-21T09:55:36;12.50;67.70
43665;DHT22;29263;48.172;11.484;2023-03-21T10:01:02;12.70;68.80
43665;DHT22;29263;48.172;11.484;2023-03-21T10:03:31;12.80;69.80
43665;DHT22;29263;48.172;11.484;2023-03-21T10:06:02;12.90;67.90
43665;DHT22;29263;48.172;11.484;2023-03-21T10:08:34;13.00;70.90
43665;DHT22;29263;48.172;11.484;2023-03-21T10:11:18;13.20;71.30
43665;DHT22;29263;48.172;11.484;2023-03-21T10:17:19;13.30;70.00
43665;DHT22;29263;48.172;11.484;2023-03-21T10:19:38;13.40;65.30
43665;DHT22;29263;48.172;11.484;2023-03-21T10:22:07;13.40;65.40
43665;DHT22;29263;48.172;11.484;2023-03-21T10:24:33;13.40;65.70
43665;DHT22;29263;48.172;11.484;2023-03-21T10:27:00;13.60;67.70
43665;DHT22;29263;48.172;11.484;2023-03-21T10:29:32;13.80;67.80
43665;DHT22;29263;48.172;11.484;2023-03-21T10:32:01;13.90;64.60
43665;DHT22;29263;48.172;11.484;2023-03-21T10:34:40;13.90;62.90
43665;DHT22;29263;48.172;11.484;2023-03-21T10:37:07;14.00;63.00
43665;DHT22;29263;48.172;11.484;2023-03-21T10:39:38;14.00;64.70
43665;DHT22;29263;48.172;11.484;2023-03-21T10:42:04;14.20;64.70
43665;DHT22;29263;48.172;11.484;2023-03-21T10:44:33;14.40;64.40
43665;DHT22;29263;48.172;11.484;2023-03-21T10:47:06;14.60;61.60
43665;DHT22;29263;48.172;11.484;2023-03-21T10:49:33;14.60;60.00
43665;DHT22;29263;48.172;11.484;2023-03-21T10:52:07;14.40;62.10
43665;DHT22;29263;48.172;11.484;2023-03-21T10:54:34;14.50;63.10
43665;DHT22;29263;48.172;11.484;2023-03-21T10:57:07;14.70;61.80
43665;DHT22;29263;48.172;11.484;2023-03-21T10:59:56;14.80;61.00
43665;DHT22;29263;48.172;11.484;2023-03-21T11:06:00;14.90;62.20
43665;DHT22;29263;48.172;11.484;2023-03-21T11:08:53;14.90;61.70
43665;DHT22;29263;48.172;11.484;2023-03-21T11:11:25;14.90;59.20
43665;DHT22;29263;48.172;11.484;2023-03-21T11:14:05;14.80;61.30
43665;DHT22;29263;48.172;11.484;2023-03-21T11:16:35;14.70;59.60
43665;DHT22;29263;48.172;11.484;2023-03-21T11:19:10;14.70;59.40
43665;DHT22;29263;48.172;11.484;2023-03-21T11:21:37;14.80;59.50
43665;DHT22;29263;48.172;11.484;2023-03-21T11:24:04;14.70;61.20
43665;DHT22;29263;48.172;11.484;2023-03-21T11:26:35;14.90;62.30
43665;DHT22;29263;48.172;11.484;2023-03-21T11:29:28;15.20;61.20
43665;DHT22;29263;48.172;11.484;2023-03-21T11:32:09;15.40;58.30
43665;DHT22;29263;48.172;11.484;2023-03-21T11:37:53;15.60;58.20
43665;DHT22;29263;48.172;11.484;2023-03-21T11:40:33;15.60;57.40
43665;DHT22;29263;48.172;11.484;2023-03-21T11:43:00;15.70;58.70
43665;DHT22;29263;48.172;11.484;2023-03-21T11:45:32;15.80;58.60
43665;DHT22;29263;48.172;11.484;2023-03-21T11:48:00;15.90;57.50
43665;DHT22;29263;48.172;11.484;2023-03-21T11:50:33;16.00;58.00
43665;DHT22;29263;48.172;11.484;2023-03-21T11:53:30;16.00;56.10
43665;DHT22;29263;48.172;11.484;2023-03-21T12:09:50;15.80;55.30
43665;DHT22;29263;48.172;11.484;2023-03-21T12:15:47;15.90;54.30
43665;DHT22;29263;48.172;11.484;2023-03-21T12:25:19;16.10;54.40
43665;DHT22;29263;48.172;11.484;2023-03-21T12:27:55;16.40;52.40
43665;DHT22;29263;48.172;11.484;2023-03-21T12:41:19;16.90;49.10
43665;DHT22;29263;48.172;11.484;2023-03-21T12:44:03;16.80;49.80
43665;DHT22;29263;48.172;11.484;2023-03-21T12:46:37;16.70;49.80
43665;DHT22;29263;48.172;11.484;2023-03-21T12:52:48;16.50;50.90
43665;DHT22;29263;48.172;11.484;2023-03-21T12:55:34;16.50;50.80
43665;DHT22;29263;48.172;11.484;2023-03-21T12:58:07;16.80;50.50
43665;DHT22;29263;48.172;11.484;2023-03-21T13:00:56;16.90;50.90
43665;DHT22;29263;48.172;11.484;2023-03-21T13:03:31;17.20;51.90
43665;DHT22;29263;48.172;11.484;2023-03-21T13:06:05;17.60;49.90
43665;DHT22;29263;48.172;11.484;2023-03-21T13:11:27;18.00;49.20
43665;DHT22;29263;48.172;11.484;2023-03-21T13:14:03;18.00;46.40
43665;DHT22;29263;48.172;11.484;2023-03-21T13:16:47;18.10;48.10
43665;DHT22;29263;48.172;11.484;2023-03-21T13:19:42;18.30;46.70
43665;DHT22;29263;48.172;11.484;2023-03-21T13:24:47;18.70;44.60
43665;DHT22;29263;48.172;11.484;2023-03-21T13:27:31;18.70;44.40
43665;DHT22;29263;48.172;11.484;2023-03-21T13:29:58;18.60;44.20
43665;DHT22;29263;48.172;11.484;2023-03-21T13:32:40;18.40;44.90
43665;DHT22;29263;48.172;11.484;2023-03-21T13:35:18;18.30;45.30
43665;DHT22;29263;48.172;11.484;2023-03-21T13:37:56;18.60;43.80
43665;DHT22;29263;48.172;11.484;2023-03-21T13:40:48;18.80;44.10
43665;DHT22;29263;48.172;11.484;2023-03-21T13:51:43;18.40;45.20
43665;DHT22;29263;48.172;11.484;2023-03-21T13:57:04;18.80;45.80
43665;DHT22;29263;48.172;11.484;2023-03-21T13:59:43;19.30;46.20
43665;DHT22;29263;48.172;11.484;2023-03-21T14:03:18;19.50;44.00
43665;DHT22;29263;48.172;11.484;2023-03-21T14:05:23;19.80;44.20
43665;DHT22;29263;48.172;11.484;2023-03-21T14:07:54;19.50;41.50
43665;DHT22;29263;48.172;11.484;2023-03-21T14:10:34;19.40;41.90
43665;DHT22;29263;48.172;11.484;2023-03-21T14:13:02;19.60;43.10
43665;DHT22;29263;48.172;11.484;2023-03-21T14:15:40;20.10;43.80
43665;DHT22;29263;48.172;11.484;2023-03-21T14:18:12;21.00;41.70
43665;DHT22;29263;48.172;11.484;2023-03-21T14:20:39;21.70;39.50
43665;DHT22;29263;48.172;11.484;2023-03-21T14:23:07;22.20;39.10
43665;DHT22;29263;48.172;11.484;2023-03-21T14:25:35;22.80;36.70
43665;DHT22;29263;48.172;11.484;2023-03-21T14:28:05;23.40;35.60
43665;DHT22;29263;48.172;11.484;2023-03-21T14:30:35;23.10;36.50
43665;DHT22;29263;48.172;11.484;2023-03-21T14:35:58;23.40;34.60
43665;DHT22;29263;48.172;11.484;2023-03-21T14:38:26;23.50;34.40
43665;DHT22;29263;48.172;11.484;2023-03-21T14:40:55;23.10;35.20
43665;DHT22;29263;48.172;11.484;2023-03-21T14:43:23;22.50;36.90
43665;DHT22;29263;48.172;11.484;2023-03-21T14:45:51;21.80;39.20
43665;DHT22;29263;48.172;11.484;2023-03-21T14:48:18;21.10;39.80
43665;DHT22;29263;48.172;11.484;2023-03-21T14:50:54;20.80;41.30
43665;DHT22;29263;48.172;11.484;2023-03-21T14:56:21;20.20;42.30
43665;DHT22;29263;48.172;11.484;2023-03-21T14:58:47;19.90;43.90
43665;DHT22;29263;48.172;11.484;2023-03-21T15:01:19;19.50;44.60
43665;DHT22;29263;48.172;11.484;2023-03-21T15:03:49;19.20;45.50
43665;DHT22;29263;48.172;11.484;2023-03-21T15:06:15;19.00;45.60
43665;DHT22;29263;48.172;11.484;2023-03-21T15:08:54;18.90;45.30
43665;DHT22;29263;48.172;11.484;2023-03-21T15:11:29;18.80;45.80
43665;DHT22;29263;48.172;11.484;2023-03-21T15:13:55;18.90;46.10
43665;DHT22;29263;48.172;11.484;2023-03-21T15:16:21;18.80;46.60
43665;DHT22;29263;48.172;11.484;2023-03-21T15:18:48;18.70;46.80
43665;DHT22;29263;48.172;11.484;2023-03-21T15:21:20;18.60;47.30
43665;DHT22;29263;48.172;11.484;2023-03-21T15:23:51;18.60;47.60
43665;DHT22;29263;48.172;11.484;2023-03-21T15:26:21;18.40;48.00
43665;DHT22;29263;48.172;11.484;2023-03-21T15:28:50;18.30;47.30
43665;DHT22;29263;48.172;11.484;2023-03-21T15:31:22;17.90;48.10
43665;DHT22;29263;48.172;11.484;2023-03-21T15:33:50;17.70;50.10
43665;DHT22;29263;48.172;11.484;2023-03-21T15:36:21;17.70;48.50
43665;DHT22;29263;48.172;11.484;2023-03-21T15:38:50;17.60;49.30
43665;DHT22;29263;48.172;11.484;2023-03-21T15:43:59;17.30;49.80
43665;DHT22;29263;48.172;11.484;2023-03-21T15:49:26;17.20;50.00
43665;DHT22;29263;48.172;11.484;2023-03-21T15:51:56;17.20;51.00
43665;DHT22;29263;48.172;11.484;2023-03-21T15:54:24;17.00;49.90
43665;DHT22;29263;48.172;11.484;2023-03-21T15:56:55;17.00;50.30
43665;DHT22;29263;48.172;11.484;2023-03-21T15:59:24;16.90;52.20
43665;DHT22;29263;48.172;11.484;2023-03-21T16:01:51;16.90;50.80
43665;DHT22;29263;48.172;11.484;2023-03-21T16:04:17;16.80;51.70
43665;DHT22;29263;48.172;11.484;2023-03-21T16:07:03;16.70;51.60
43665;DHT22;29263;48.172;11.484;2023-03-21T16:09:43;16.60;51.30
43665;DHT22;29263;48.172;11.484;2023-03-21T16:12:09;16.50;50.80
43665;DHT22;29263;48.172;11.484;2023-03-21T16:14:36;16.40;51.40
43665;DHT22;29263;48.172;11.484;2023-03-21T16:17:16;16.40;52.30
43665;DHT22;29263;48.172;11.484;2023-03-21T16:19:46;16.30;52.00
43665;DHT22;29263;48.172;11.484;2023-03-21T16:22:36;16.30;52.50
43665;DHT22;29263;48.172;11.484;2023-03-21T16:25:00;16.10;51.90
43665;DHT22;29263;48.172;11.484;2023-03-21T16:27:26;15.90;52.50
43665;DHT22;29263;48.172;11.484;2023-03-21T16:29:52;15.80;53.20
43665;DHT22;29263;48.172;11.484;2023-03-21T16:32:17;15.90;54.40
43665;DHT22;29263;48.172;11.484;2023-03-21T16:34:57;15.80;54.60
43665;DHT22;29263;48.172;11.484;2023-03-21T16:47:21;15.60;55.40
43665;DHT22;29263;48.172;11.484;2023-03-21T16:50:20;15.60;55.70
43665;DHT22;29263;48.172;11.484;2023-03-21T16:53:01;15.50;56.60
43665;DHT22;29263;48.172;11.484;2023-03-21T16:55:42;15.50;56.40
43665;DHT22;29263;48.172;11.484;2023-03-21T16:58:14;15.50;55.90
43665;DHT22;29263;48.172;11.484;2023-03-21T17:01:03;15.40;56.90
43665;DHT22;29263;48.172;11.484;2023-03-21T17:06:45;15.30;59.70
43665;DHT22;29263;48.172;11.484;2023-03-21T17:22:18;14.80;61.90
43665;DHT22;29263;48.172;11.484;2023-03-21T17:24:44;14.80;64.00
43665;DHT22;29263;48.172;11.484;2023-03-21T17:27:31;14.60;63.90
43665;DHT22;29263;48.172;11.484;2023-03-21T17:30:28;14.60;65.00
43665;DHT22;29263;48.172;11.484;2023-03-21T17:32:54;14.40;64.30
43665;DHT22;29263;48.172;11.484;2023-03-21T17:35:21;14.30;64.80
43665;DHT22;29263;48.172;11.484;2023-03-21T17:37:47;14.30;67.90
43665;DHT22;29263;48.172;11.484;2023-03-21T17:40:23;14.10;68.00
43665;DHT22;29263;48.172;11.484;2023-03-21T17:42:50;14.10;67.60
43665;DHT22;29263;48.172;11.484;2023-03-21T17:45:17;14.00;69.20
43665;DHT22;29263;48.172;11.484;2023-03-21T17:47:43;13.80;70.60
43665;DHT22;29263;48.172;11.484;2023-03-21T17:50:20;13.80;73.00
43665;DHT22;29263;48.172;11.484;2023-03-21T17:52:47;13.70;75.00
43665;DHT22;29263;48.172;11.484;2023-03-21T17:55:14;13.60;73.70
43665;DHT22;29263;48.172;11.484;2023-03-21T17:57:40;13.40;74.40
43665;DHT22;29263;48.172;11.484;2023-03-21T18:00:09;13.40;78.80
43665;DHT22;29263;48.172;11.484;2023-03-21T18:02:40;13.30;76.00
43665;DHT22;29263;48.172;11.484;2023-03-21T18:05:06;13.20;76.00